sensor_id;sensor_type;location;lat;lon;timestamp;P1;durP1;ratioP1;P2;durP2;ratioP2
38567;SDS011;24338;48.280;10.970;2023-04-27T00:01:05;11.43;;;5.47;;
38567;SDS011;24338;48.280;10.970;2023-04-27T00:04:31;11.00;;;5.65;;
38567;SDS011;24338;48.280;10.970;2023-04-27T00:07:15;14.13;;;6.07;;
38567;SDS011;24338;48.280;10.970;2023-04-27T00:09:46;8.05;;;5.22;;
38567;SDS011;24338;48.280;10.970;2023-04-27T00:12:22;10.38;;;5.85;;
38567;SDS011;24338;48.280;10.970;2023-04-27T00:15:12;13.45;;;5.80;;
38567;SDS011;24338;48.280;10.970;2023-04-27T00:24:20;8.13;;;5.32;;
38567;SDS011;24338;48.280;10.970;2023-04-27T00:27:52;10.95;;;5.90;;
38567;SDS011;24338;48.280;10.970;2023-04-27T00:46:56;12.95;;;5.93;;
38567;SDS011;24338;48.280;10.970;2023-04-27T00:51:10;8.77;;;4.72;;
38567;SDS011;24338;48.280;10.970;2023-04-27T00:58:45;7.00;;;5.03;;
38567;SDS011;24338;48.280;10.970;2023-04-27T01:02:20;7.68;;;5.30;;
38567;SDS011;24338;48.280;10.970;2023-04-27T01:05:15;11.20;;;4.97;;
38567;SDS011;24338;48.280;10.970;2023-04-27T01:08:08;9.75;;;4.97;;
38567;SDS011;24338;48.280;10.970;2023-04-27T01:10:39;14.32;;;5.93;;
38567;SDS011;24338;48.280;10.970;2023-04-27T01:14:27;12.23;;;4.90;;
38567;SDS011;24338;48.280;10.970;2023-04-27T01:17:43;11.75;;;5.43;;
38567;SDS011;24338;48.280;10.970;2023-04-27T01:20:15;12.73;;;5.22;;
38567;SDS011;24338;48.280;10.970;2023-04-27T01:23:03;12.07;;;6.22;;
38567;SDS011;24338;48.280;10.970;2023-04-27T01:26:24;8.13;;;5.05;;
38567;SDS011;24338;48.280;10.970;2023-04-27T01:29:45;9.85;;;4.97;;
38567;SDS011;24338;48.280;10.970;2023-04-27T01:33:09;8.10;;;4.35;;
38567;SDS011;24338;48.280;10.970;2023-04-27T01:36:22;7.20;;;4.28;;
38567;SDS011;24338;48.280;10.970;2023-04-27T01:39:13;6.18;;;4.30;;
38567;SDS011;24338;48.280;10.970;2023-04-27T01:41:56;6.05;;;4.22;;
38567;SDS011;24338;48.280;10.970;2023-04-27T01:44:34;9.48;;;5.30;;
38567;SDS011;24338;48.280;10.970;2023-04-27T01:47:13;9.43;;;4.30;;
38567;SDS011;24338;48.280;10.970;2023-04-27T01:50:02;10.70;;;5.00;;
38567;SDS011;24338;48.280;10.970;2023-04-27T01:53:05;7.63;;;4.47;;
38567;SDS011;24338;48.280;10.970;2023-04-27T01:56:36;7.38;;;4.45;;
38567;SDS011;24338;48.280;10.970;2023-04-27T02:00:23;8.73;;;3.97;;
38567;SDS011;24338;48.280;10.970;2023-04-27T02:03:43;10.30;;;5.03;;
38567;SDS011;24338;48.280;10.970;2023-04-27T02:07:13;9.07;;;4.72;;
38567;SDS011;24338;48.280;10.970;2023-04-27T02:10:23;7.40;;;4.65;;
38567;SDS011;24338;48.280;10.970;2023-04-27T02:13:10;11.18;;;5.20;;
38567;SDS011;24338;48.280;10.970;2023-04-27T02:16:51;6.90;;;5.07;;
38567;SDS011;24338;48.280;10.970;2023-04-27T02:19:39;11.45;;;5.30;;
38567;SDS011;24338;48.280;10.970;2023-04-27T02:22:27;8.10;;;4.88;;
38567;SDS011;24338;48.280;10.970;2023-04-27T02:25:12;9.02;;;5.10;;
38567;SDS011;24338;48.280;10.970;2023-04-27T02:28:34;11.50;;;5.75;;
38567;SDS011;24338;48.280;10.970;2023-04-27T02:31:37;9.13;;;5.25;;
38567;SDS011;24338;48.280;10.970;2023-04-27T02:34:29;10.10;;;5.85;;
38567;SDS011;24338;48.280;10.970;2023-04-27T02:37:34;7.63;;;4.50;;
38567;SDS011;24338;48.280;10.970;2023-04-27T02:40:12;10.52;;;5.35;;
38567;SDS011;24338;48.280;10.970;2023-04-27T02:42:56;9.10;;;5.88;;
38567;SDS011;24338;48.280;10.970;2023-04-27T02:45:48;8.65;;;4.97;;
38567;SDS011;24338;48.280;10.970;2023-04-27T02:48:31;12.32;;;5.78;;
38567;SDS011;24338;48.280;10.970;2023-04-27T02:51:19;9.30;;;6.22;;
38567;SDS011;24338;48.280;10.970;2023-04-27T02:54:05;15.40;;;6.50;;
38567;SDS011;24338;48.280;10.970;2023-04-27T02:56:58;7.80;;;5.22;;
38567;SDS011;24338;48.280;10.970;2023-04-27T03:00:03;8.73;;;4.88;;
38567;SDS011;24338;48.280;10.970;2023-04-27T03:02:44;11.23;;;5.15;;
38567;SDS011;24338;48.280;10.970;2023-04-27T03:05:24;7.35;;;5.20;;
38567;SDS011;24338;48.280;10.970;2023-04-27T03:08:14;12.88;;;5.65;;
38567;SDS011;24338;48.280;10.970;2023-04-27T03:10:56;10.10;;;6.10;;
38567;SDS011;24338;48.280;10.970;2023-04-27T03:13:40;10.15;;;5.15;;
38567;SDS011;24338;48.280;10.970;2023-04-27T03:16:21;9.30;;;5.45;;
38567;SDS011;24338;48.280;10.970;2023-04-27T03:18:57;12.05;;;5.35;;
38567;SDS011;24338;48.280;10.970;2023-04-27T03:21:39;9.60;;;5.90;;
38567;SDS011;24338;48.280;10.970;2023-04-27T03:24:08;10.55;;;5.53;;
38567;SDS011;24338;48.280;10.970;2023-04-27T03:26:55;8.05;;;4.80;;
38567;SDS011;24338;48.280;10.970;2023-04-27T03:29:32;9.63;;;5.00;;
38567;SDS011;24338;48.280;10.970;2023-04-27T03:32:22;8.50;;;5.05;;
38567;SDS011;24338;48.280;10.970;2023-04-27T03:35:10;7.88;;;5.32;;
38567;SDS011;24338;48.280;10.970;2023-04-27T03:38:03;10.38;;;4.93;;
38567;SDS011;24338;48.280;10.970;2023-04-27T03:40:53;6.78;;;4.72;;
38567;SDS011;24338;48.280;10.970;2023-04-27T03:46:25;13.93;;;5.13;;
38567;SDS011;24338;48.280;10.970;2023-04-27T03:49:17;8.43;;;5.30;;
38567;SDS011;24338;48.280;10.970;2023-04-27T03:52:13;10.25;;;5.10;;
38567;SDS011;24338;48.280;10.970;2023-04-27T03:54:55;9.05;;;5.85;;
38567;SDS011;24338;48.280;10.970;2023-04-27T03:57:41;11.25;;;5.88;;
38567;SDS011;24338;48.280;10.970;2023-04-27T04:00:22;8.65;;;5.68;;
38567;SDS011;24338;48.280;10.970;2023-04-27T04:03:15;7.35;;;5.38;;
38567;SDS011;24338;48.280;10.970;2023-04-27T04:06:09;10.00;;;6.25;;
38567;SDS011;24338;48.280;10.970;2023-04-27T04:08:38;10.02;;;5.38;;
38567;SDS011;24338;48.280;10.970;2023-04-27T04:11:04;9.20;;;6.03;;
38567;SDS011;24338;48.280;10.970;2023-04-27T04:13:31;10.73;;;6.55;;
38567;SDS011;24338;48.280;10.970;2023-04-27T04:16:02;12.95;;;7.18;;
38567;SDS011;24338;48.280;10.970;2023-04-27T04:20:57;12.23;;;7.30;;
38567;SDS011;24338;48.280;10.970;2023-04-27T04:23:24;10.02;;;6.88;;
38567;SDS011;24338;48.280;10.970;2023-04-27T04:25:52;18.00;;;7.85;;
38567;SDS011;24338;48.280;10.970;2023-04-27T04:28:23;11.32;;;7.10;;
38567;SDS011;24338;48.280;10.970;2023-04-27T04:30:50;12.18;;;7.50;;
38567;SDS011;24338;48.280;10.970;2023-04-27T04:33:17;15.70;;;7.55;;
38567;SDS011;24338;48.280;10.970;2023-04-27T04:35:44;9.88;;;7.18;;
38567;SDS011;24338;48.280;10.970;2023-04-27T04:38:12;12.10;;;8.02;;
38567;SDS011;24338;48.280;10.970;2023-04-27T04:40:39;13.57;;;8.90;;
38567;SDS011;24338;48.280;10.970;2023-04-27T04:43:10;12.43;;;7.82;;
38567;SDS011;24338;48.280;10.970;2023-04-27T04:45:38;10.48;;;7.18;;
38567;SDS011;24338;48.280;10.970;2023-04-27T04:48:05;12.00;;;8.00;;
38567;SDS011;24338;48.280;10.970;2023-04-27T04:50:32;12.25;;;7.10;;
38567;SDS011;24338;48.280;10.970;2023-04-27T04:52:59;10.07;;;7.47;;
38567;SDS011;24338;48.280;10.970;2023-04-27T04:55:26;11.07;;;8.63;;
38567;SDS011;24338;48.280;10.970;2023-04-27T04:57:56;14.95;;;8.27;;
38567;SDS011;24338;48.280;10.970;2023-04-27T05:00:23;12.93;;;8.70;;
38567;SDS011;24338;48.280;10.970;2023-04-27T05:02:50;15.30;;;7.95;;
38567;SDS011;24338;48.280;10.970;2023-04-27T05:05:17;9.57;;;7.90;;
38567;SDS011;24338;48.280;10.970;2023-04-27T05:07:44;10.63;;;6.80;;
38567;SDS011;24338;48.280;10.970;2023-04-27T05:10:10;8.88;;;6.07;;
38567;SDS011;24338;48.280;10.970;2023-04-27T05:12:37;8.82;;;5.88;;
38567;SDS011;24338;48.280;10.970;2023-04-27T05:15:04;8.48;;;5.55;;
38567;SDS011;24338;48.280;10.970;2023-04-27T05:17:32;9.90;;;6.75;;
38567;SDS011;24338;48.280;10.970;2023-04-27T05:19:59;12.90;;;6.50;;
38567;SDS011;24338;48.280;10.970;2023-04-27T05:22:26;11.68;;;7.75;;
38567;SDS011;24338;48.280;10.970;2023-04-27T05:24:53;11.60;;;6.85;;
38567;SDS011;24338;48.280;10.970;2023-04-27T05:27:20;13.45;;;6.43;;
38567;SDS011;24338;48.280;10.970;2023-04-27T05:29:47;10.73;;;7.25;;
38567;SDS011;24338;48.280;10.970;2023-04-27T05:32:15;9.55;;;6.22;;
38567;SDS011;24338;48.280;10.970;2023-04-27T05:34:42;10.88;;;7.85;;
38567;SDS011;24338;48.280;10.970;2023-04-27T05:37:13;11.63;;;6.93;;
38567;SDS011;24338;48.280;10.970;2023-04-27T05:39:40;11.70;;;8.13;;
38567;SDS011;24338;48.280;10.970;2023-04-27T05:42:07;17.13;;;7.70;;
38567;SDS011;24338;48.280;10.970;2023-04-27T05:44:34;14.07;;;7.20;;
38567;SDS011;24338;48.280;10.970;2023-04-27T05:47:01;14.82;;;7.65;;
38567;SDS011;24338;48.280;10.970;2023-04-27T05:49:28;10.88;;;7.80;;
38567;SDS011;24338;48.280;10.970;2023-04-27T05:51:55;14.60;;;8.57;;
38567;SDS011;24338;48.280;10.970;2023-04-27T05:54:24;16.33;;;9.40;;
38567;SDS011;24338;48.280;10.970;2023-04-27T05:56:52;14.93;;;8.90;;
38567;SDS011;24338;48.280;10.970;2023-04-27T05:59:19;14.15;;;8.70;;
38567;SDS011;24338;48.280;10.970;2023-04-27T06:01:47;12.82;;;7.82;;
38567;SDS011;24338;48.280;10.970;2023-04-27T06:04:14;13.48;;;9.45;;
38567;SDS011;24338;48.280;10.970;2023-04-27T06:06:41;12.68;;;8.73;;
38567;SDS011;24338;48.280;10.970;2023-04-27T06:09:10;15.10;;;9.40;;
38567;SDS011;24338;48.280;10.970;2023-04-27T06:11:37;16.40;;;9.18;;
38567;SDS011;24338;48.280;10.970;2023-04-27T06:14:04;17.77;;;9.13;;
38567;SDS011;24338;48.280;10.970;2023-04-27T06:16:31;11.25;;;8.63;;
38567;SDS011;24338;48.280;10.970;2023-04-27T06:18:58;13.43;;;9.57;;
38567;SDS011;24338;48.280;10.970;2023-04-27T06:21:25;12.52;;;8.00;;
38567;SDS011;24338;48.280;10.970;2023-04-27T06:23:53;10.50;;;8.20;;
38567;SDS011;24338;48.280;10.970;2023-04-27T06:26:20;11.50;;;7.85;;
38567;SDS011;24338;48.280;10.970;2023-04-27T06:28:46;12.38;;;9.40;;
38567;SDS011;24338;48.280;10.970;2023-04-27T06:31:13;13.40;;;8.43;;
38567;SDS011;24338;48.280;10.970;2023-04-27T06:33:40;11.05;;;7.07;;
38567;SDS011;24338;48.280;10.970;2023-04-27T06:36:07;11.77;;;8.13;;
38567;SDS011;24338;48.280;10.970;2023-04-27T06:38:34;12.40;;;8.35;;
38567;SDS011;24338;48.280;10.970;2023-04-27T06:41:01;11.88;;;8.43;;
38567;SDS011;24338;48.280;10.970;2023-04-27T06:43:28;14.23;;;7.80;;
38567;SDS011;24338;48.280;10.970;2023-04-27T06:45:55;13.40;;;7.50;;
38567;SDS011;24338;48.280;10.970;2023-04-27T06:48:22;12.15;;;6.88;;
38567;SDS011;24338;48.280;10.970;2023-04-27T06:50:49;12.13;;;6.85;;
38567;SDS011;24338;48.280;10.970;2023-04-27T06:53:17;10.95;;;7.03;;
38567;SDS011;24338;48.280;10.970;2023-04-27T06:55:44;9.48;;;5.93;;
38567;SDS011;24338;48.280;10.970;2023-04-27T06:58:13;10.48;;;6.68;;
38567;SDS011;24338;48.280;10.970;2023-04-27T07:00:40;9.85;;;7.22;;
38567;SDS011;24338;48.280;10.970;2023-04-27T07:03:07;9.98;;;6.40;;
38567;SDS011;24338;48.280;10.970;2023-04-27T07:05:50;10.13;;;5.93;;
38567;SDS011;24338;48.280;10.970;2023-04-27T07:08:17;10.55;;;6.20;;
38567;SDS011;24338;48.280;10.970;2023-04-27T07:10:44;9.95;;;5.80;;
38567;SDS011;24338;48.280;10.970;2023-04-27T07:13:10;12.73;;;6.80;;
38567;SDS011;24338;48.280;10.970;2023-04-27T07:15:39;9.93;;;6.55;;
38567;SDS011;24338;48.280;10.970;2023-04-27T07:18:05;12.07;;;6.45;;
38567;SDS011;24338;48.280;10.970;2023-04-27T07:20:32;10.32;;;6.22;;
38567;SDS011;24338;48.280;10.970;2023-04-27T07:22:59;12.18;;;6.35;;
38567;SDS011;24338;48.280;10.970;2023-04-27T07:25:26;11.95;;;5.90;;
38567;SDS011;24338;48.280;10.970;2023-04-27T07:27:53;10.70;;;6.10;;
38567;SDS011;24338;48.280;10.970;2023-04-27T07:30:20;7.95;;;5.47;;
38567;SDS011;24338;48.280;10.970;2023-04-27T07:32:48;9.30;;;5.18;;
38567;SDS011;24338;48.280;10.970;2023-04-27T07:35:19;7.13;;;5.63;;
38567;SDS011;24338;48.280;10.970;2023-04-27T07:37:47;11.88;;;5.45;;
38567;SDS011;24338;48.280;10.970;2023-04-27T07:40:14;11.90;;;6.43;;
38567;SDS011;24338;48.280;10.970;2023-04-27T07:42:42;9.98;;;5.25;;
38567;SDS011;24338;48.280;10.970;2023-04-27T07:45:09;12.80;;;5.97;;
38567;SDS011;24338;48.280;10.970;2023-04-27T07:47:36;10.50;;;5.70;;
38567;SDS011;24338;48.280;10.970;2023-04-27T07:50:07;10.68;;;4.75;;
38567;SDS011;24338;48.280;10.970;2023-04-27T07:52:34;21.20;;;6.28;;
38567;SDS011;24338;48.280;10.970;2023-04-27T07:55:02;10.95;;;5.70;;
38567;SDS011;24338;48.280;10.970;2023-04-27T07:57:29;8.80;;;4.45;;
38567;SDS011;24338;48.280;10.970;2023-04-27T07:59:56;12.10;;;5.53;;
38567;SDS011;24338;48.280;10.970;2023-04-27T08:02:25;7.65;;;4.72;;
38567;SDS011;24338;48.280;10.970;2023-04-27T08:07:23;7.40;;;4.15;;
38567;SDS011;24338;48.280;10.970;2023-04-27T08:09:50;6.80;;;4.50;;
38567;SDS011;24338;48.280;10.970;2023-04-27T08:12:17;9.85;;;4.43;;
38567;SDS011;24338;48.280;10.970;2023-04-27T08:14:44;11.65;;;5.32;;
38567;SDS011;24338;48.280;10.970;2023-04-27T08:17:12;8.02;;;5.05;;
38567;SDS011;24338;48.280;10.970;2023-04-27T08:19:39;9.20;;;4.47;;
38567;SDS011;24338;48.280;10.970;2023-04-27T08:22:06;6.30;;;4.15;;
38567;SDS011;24338;48.280;10.970;2023-04-27T08:24:33;7.10;;;4.50;;
38567;SDS011;24338;48.280;10.970;2023-04-27T08:27:00;10.60;;;5.47;;
38567;SDS011;24338;48.280;10.970;2023-04-27T08:29:28;10.07;;;4.85;;
38567;SDS011;24338;48.280;10.970;2023-04-27T08:31:57;7.72;;;5.13;;
38567;SDS011;24338;48.280;10.970;2023-04-27T08:34:26;7.82;;;5.00;;
38567;SDS011;24338;48.280;10.970;2023-04-27T08:36:54;9.20;;;5.05;;
38567;SDS011;24338;48.280;10.970;2023-04-27T08:39:22;16.50;;;5.50;;
38567;SDS011;24338;48.280;10.970;2023-04-27T08:41:50;8.38;;;5.30;;
38567;SDS011;24338;48.280;10.970;2023-04-27T08:44:16;6.55;;;4.22;;
38567;SDS011;24338;48.280;10.970;2023-04-27T08:46:43;7.53;;;4.90;;
38567;SDS011;24338;48.280;10.970;2023-04-27T08:49:11;12.07;;;4.78;;
38567;SDS011;24338;48.280;10.970;2023-04-27T08:51:41;6.32;;;4.75;;
38567;SDS011;24338;48.280;10.970;2023-04-27T08:54:08;8.00;;;5.15;;
38567;SDS011;24338;48.280;10.970;2023-04-27T08:56:35;11.30;;;5.05;;
38567;SDS011;24338;48.280;10.970;2023-04-27T08:59:02;10.30;;;5.32;;
38567;SDS011;24338;48.280;10.970;2023-04-27T09:01:42;12.27;;;5.72;;
38567;SDS011;24338;48.280;10.970;2023-04-27T09:04:10;7.72;;;4.60;;
38567;SDS011;24338;48.280;10.970;2023-04-27T09:06:37;7.38;;;4.00;;
38567;SDS011;24338;48.280;10.970;2023-04-27T09:09:04;10.02;;;5.35;;
38567;SDS011;24338;48.280;10.970;2023-04-27T09:11:35;10.57;;;4.97;;
38567;SDS011;24338;48.280;10.970;2023-04-27T09:14:18;7.90;;;4.82;;
38567;SDS011;24338;48.280;10.970;2023-04-27T09:16:52;11.60;;;5.07;;
38567;SDS011;24338;48.280;10.970;2023-04-27T09:19:24;14.30;;;5.35;;
38567;SDS011;24338;48.280;10.970;2023-04-27T09:24:49;8.82;;;4.75;;
38567;SDS011;24338;48.280;10.970;2023-04-27T09:27:20;8.45;;;4.35;;
38567;SDS011;24338;48.280;10.970;2023-04-27T09:29:48;13.27;;;5.23;;
38567;SDS011;24338;48.280;10.970;2023-04-27T09:32:18;8.63;;;5.07;;
38567;SDS011;24338;48.280;10.970;2023-04-27T09:34:57;7.40;;;5.18;;
38567;SDS011;24338;48.280;10.970;2023-04-27T09:37:42;8.32;;;4.50;;
38567;SDS011;24338;48.280;10.970;2023-04-27T09:40:43;9.65;;;4.13;;
38567;SDS011;24338;48.280;10.970;2023-04-27T09:43:34;6.63;;;3.55;;
38567;SDS011;24338;48.280;10.970;2023-04-27T09:50:57;5.25;;;2.30;;
38567;SDS011;24338;48.280;10.970;2023-04-27T09:53:42;7.15;;;2.63;;
38567;SDS011;24338;48.280;10.970;2023-04-27T09:56:29;7.05;;;2.50;;
38567;SDS011;24338;48.280;10.970;2023-04-27T09:59:04;4.88;;;2.28;;
38567;SDS011;24338;48.280;10.970;2023-04-27T10:01:44;9.32;;;2.85;;
38567;SDS011;24338;48.280;10.970;2023-04-27T10:06:59;5.35;;;2.60;;
38567;SDS011;24338;48.280;10.970;2023-04-27T10:09:41;4.72;;;2.80;;
38567;SDS011;24338;48.280;10.970;2023-04-27T10:12:12;4.95;;;2.95;;
38567;SDS011;24338;48.280;10.970;2023-04-27T10:14:49;7.28;;;3.28;;
38567;SDS011;24338;48.280;10.970;2023-04-27T10:17:18;6.20;;;3.33;;
38567;SDS011;24338;48.280;10.970;2023-04-27T10:20:27;5.82;;;2.67;;
38567;SDS011;24338;48.280;10.970;2023-04-27T10:22:53;7.18;;;3.40;;
38567;SDS011;24338;48.280;10.970;2023-04-27T10:30:21;6.05;;;3.00;;
38567;SDS011;24338;48.280;10.970;2023-04-27T10:32:55;4.53;;;2.67;;
38567;SDS011;24338;48.280;10.970;2023-04-27T10:35:43;6.05;;;2.53;;
38567;SDS011;24338;48.280;10.970;2023-04-27T10:38:19;6.38;;;2.80;;
38567;SDS011;24338;48.280;10.970;2023-04-27T10:41:01;5.88;;;2.88;;
38567;SDS011;24338;48.280;10.970;2023-04-27T10:43:31;5.90;;;3.40;;
38567;SDS011;24338;48.280;10.970;2023-04-27T10:46:06;5.53;;;2.95;;
38567;SDS011;24338;48.280;10.970;2023-04-27T10:48:34;7.78;;;2.33;;
38567;SDS011;24338;48.280;10.970;2023-04-27T10:51:01;5.22;;;2.92;;
38567;SDS011;24338;48.280;10.970;2023-04-27T10:53:32;5.28;;;2.83;;
38567;SDS011;24338;48.280;10.970;2023-04-27T10:56:01;6.20;;;2.90;;
38567;SDS011;24338;48.280;10.970;2023-04-27T10:58:29;7.22;;;3.70;;
38567;SDS011;24338;48.280;10.970;2023-04-27T11:01:22;5.07;;;2.97;;
38567;SDS011;24338;48.280;10.970;2023-04-27T11:03:53;6.38;;;3.58;;
38567;SDS011;24338;48.280;10.970;2023-04-27T11:06:22;7.07;;;3.50;;
38567;SDS011;24338;48.280;10.970;2023-04-27T11:08:49;5.25;;;3.63;;
38567;SDS011;24338;48.280;10.970;2023-04-27T11:11:18;6.18;;;3.50;;
38567;SDS011;24338;48.280;10.970;2023-04-27T11:13:47;6.43;;;3.50;;
38567;SDS011;24338;48.280;10.970;2023-04-27T11:16:15;5.10;;;3.40;;
38567;SDS011;24338;48.280;10.970;2023-04-27T11:18:44;5.32;;;3.00;;
38567;SDS011;24338;48.280;10.970;2023-04-27T11:21:12;8.82;;;3.28;;
38567;SDS011;24338;48.280;10.970;2023-04-27T11:23:40;4.57;;;2.97;;
38567;SDS011;24338;48.280;10.970;2023-04-27T11:26:08;13.05;;;2.85;;
38567;SDS011;24338;48.280;10.970;2023-04-27T11:28:36;6.22;;;3.22;;
38567;SDS011;24338;48.280;10.970;2023-04-27T11:31:03;5.85;;;3.10;;
38567;SDS011;24338;48.280;10.970;2023-04-27T11:33:30;7.15;;;2.92;;
38567;SDS011;24338;48.280;10.970;2023-04-27T11:35:57;6.63;;;3.10;;
38567;SDS011;24338;48.280;10.970;2023-04-27T11:38:25;6.55;;;3.60;;
38567;SDS011;24338;48.280;10.970;2023-04-27T11:41:02;5.05;;;3.08;;
38567;SDS011;24338;48.280;10.970;2023-04-27T11:44:08;8.40;;;3.38;;
38567;SDS011;24338;48.280;10.970;2023-04-27T11:46:38;8.18;;;3.25;;
38567;SDS011;24338;48.280;10.970;2023-04-27T11:49:10;6.65;;;3.33;;
38567;SDS011;24338;48.280;10.970;2023-04-27T11:51:38;5.28;;;3.20;;
38567;SDS011;24338;48.280;10.970;2023-04-27T11:54:05;5.45;;;3.10;;
38567;SDS011;24338;48.280;10.970;2023-04-27T11:56:36;7.50;;;3.40;;
38567;SDS011;24338;48.280;10.970;2023-04-27T12:01:32;10.88;;;3.67;;
38567;SDS011;24338;48.280;10.970;2023-04-27T12:04:03;7.68;;;3.30;;
38567;SDS011;24338;48.280;10.970;2023-04-27T12:06:30;12.32;;;5.10;;
38567;SDS011;24338;48.280;10.970;2023-04-27T12:08:59;7.05;;;4.10;;
38567;SDS011;24338;48.280;10.970;2023-04-27T12:11:26;11.45;;;3.92;;
38567;SDS011;24338;48.280;10.970;2023-04-27T12:13:53;16.95;;;5.25;;
38567;SDS011;24338;48.280;10.970;2023-04-27T12:16:21;7.80;;;3.78;;
38567;SDS011;24338;48.280;10.970;2023-04-27T12:18:51;7.05;;;3.15;;
38567;SDS011;24338;48.280;10.970;2023-04-27T12:21:17;6.03;;;3.25;;
38567;SDS011;24338;48.280;10.970;2023-04-27T12:23:44;7.50;;;3.38;;
38567;SDS011;24338;48.280;10.970;2023-04-27T12:26:11;9.02;;;2.95;;
38567;SDS011;24338;48.280;10.970;2023-04-27T12:28:40;4.40;;;2.85;;
38567;SDS011;24338;48.280;10.970;2023-04-27T12:31:07;5.22;;;2.53;;
38567;SDS011;24338;48.280;10.970;2023-04-27T12:33:38;4.05;;;2.35;;
38567;SDS011;24338;48.280;10.970;2023-04-27T12:36:05;5.63;;;2.42;;
38567;SDS011;24338;48.280;10.970;2023-04-27T12:38:32;5.78;;;2.30;;
38567;SDS011;24338;48.280;10.970;2023-04-27T12:40:59;4.88;;;1.55;;
38567;SDS011;24338;48.280;10.970;2023-04-27T12:43:27;4.88;;;2.65;;
38567;SDS011;24338;48.280;10.970;2023-04-27T12:45:54;3.92;;;2.28;;
38567;SDS011;24338;48.280;10.970;2023-04-27T12:48:21;7.57;;;2.00;;
38567;SDS011;24338;48.280;10.970;2023-04-27T12:50:48;6.20;;;2.42;;
38567;SDS011;24338;48.280;10.970;2023-04-27T12:53:16;5.10;;;1.90;;
38567;SDS011;24338;48.280;10.970;2023-04-27T12:55:42;4.00;;;1.90;;
38567;SDS011;24338;48.280;10.970;2023-04-27T12:58:09;4.38;;;2.20;;
38567;SDS011;24338;48.280;10.970;2023-04-27T13:00:36;3.15;;;1.77;;
38567;SDS011;24338;48.280;10.970;2023-04-27T13:03:04;4.15;;;1.95;;
38567;SDS011;24338;48.280;10.970;2023-04-27T13:05:32;4.40;;;2.08;;
38567;SDS011;24338;48.280;10.970;2023-04-27T13:07:59;5.15;;;1.98;;
38567;SDS011;24338;48.280;10.970;2023-04-27T13:10:26;4.78;;;1.98;;
38567;SDS011;24338;48.280;10.970;2023-04-27T13:12:54;6.70;;;2.15;;
38567;SDS011;24338;48.280;10.970;2023-04-27T13:15:21;3.90;;;1.90;;
38567;SDS011;24338;48.280;10.970;2023-04-27T13:17:48;6.03;;;2.03;;
38567;SDS011;24338;48.280;10.970;2023-04-27T13:20:18;4.10;;;1.88;;
38567;SDS011;24338;48.280;10.970;2023-04-27T13:22:45;4.68;;;2.40;;
38567;SDS011;24338;48.280;10.970;2023-04-27T13:25:12;5.32;;;2.33;;
38567;SDS011;24338;48.280;10.970;2023-04-27T13:27:41;5.95;;;2.25;;
38567;SDS011;24338;48.280;10.970;2023-04-27T13:30:08;4.70;;;2.10;;
38567;SDS011;24338;48.280;10.970;2023-04-27T13:32:35;5.60;;;2.00;;
38567;SDS011;24338;48.280;10.970;2023-04-27T13:35:03;5.20;;;1.65;;
38567;SDS011;24338;48.280;10.970;2023-04-27T13:37:30;3.53;;;1.73;;
38567;SDS011;24338;48.280;10.970;2023-04-27T13:39:57;4.15;;;1.55;;
38567;SDS011;24338;48.280;10.970;2023-04-27T13:42:24;4.15;;;1.70;;
38567;SDS011;24338;48.280;10.970;2023-04-27T13:44:54;5.68;;;2.28;;
38567;SDS011;24338;48.280;10.970;2023-04-27T13:47:24;4.57;;;2.05;;
38567;SDS011;24338;48.280;10.970;2023-04-27T13:49:50;3.67;;;1.50;;
38567;SDS011;24338;48.280;10.970;2023-04-27T13:52:19;3.70;;;1.52;;
38567;SDS011;24338;48.280;10.970;2023-04-27T13:54:46;4.20;;;1.70;;
38567;SDS011;24338;48.280;10.970;2023-04-27T13:57:13;7.57;;;2.40;;
38567;SDS011;24338;48.280;10.970;2023-04-27T13:59:40;4.43;;;2.03;;
38567;SDS011;24338;48.280;10.970;2023-04-27T14:02:06;4.30;;;1.80;;
38567;SDS011;24338;48.280;10.970;2023-04-27T14:04:34;3.65;;;1.50;;
38567;SDS011;24338;48.280;10.970;2023-04-27T14:07:01;3.97;;;1.42;;
38567;SDS011;24338;48.280;10.970;2023-04-27T14:09:28;4.30;;;1.60;;
38567;SDS011;24338;48.280;10.970;2023-04-27T14:11:54;5.07;;;2.00;;
38567;SDS011;24338;48.280;10.970;2023-04-27T14:14:22;4.22;;;1.50;;
38567;SDS011;24338;48.280;10.970;2023-04-27T14:19:24;2.10;;;1.23;;
38567;SDS011;24338;48.280;10.970;2023-04-27T14:21:52;2.95;;;1.50;;
38567;SDS011;24338;48.280;10.970;2023-04-27T14:24:20;4.80;;;1.48;;
38567;SDS011;24338;48.280;10.970;2023-04-27T14:26:47;3.60;;;1.88;;
38567;SDS011;24338;48.280;10.970;2023-04-27T14:29:16;2.60;;;1.42;;
38567;SDS011;24338;48.280;10.970;2023-04-27T14:31:44;10.02;;;2.08;;
38567;SDS011;24338;48.280;10.970;2023-04-27T14:34:11;3.95;;;1.70;;
38567;SDS011;24338;48.280;10.970;2023-04-27T14:36:45;2.60;;;1.20;;
38567;SDS011;24338;48.280;10.970;2023-04-27T14:39:12;3.25;;;1.25;;
38567;SDS011;24338;48.280;10.970;2023-04-27T14:41:39;6.10;;;1.88;;
38567;SDS011;24338;48.280;10.970;2023-04-27T14:44:06;5.75;;;2.80;;
38567;SDS011;24338;48.280;10.970;2023-04-27T14:46:35;5.40;;;2.38;;
38567;SDS011;24338;48.280;10.970;2023-04-27T14:49:02;3.75;;;1.90;;
38567;SDS011;24338;48.280;10.970;2023-04-27T14:51:29;3.42;;;1.48;;
38567;SDS011;24338;48.280;10.970;2023-04-27T14:53:57;4.25;;;1.73;;
38567;SDS011;24338;48.280;10.970;2023-04-27T14:56:24;6.18;;;1.70;;
38567;SDS011;24338;48.280;10.970;2023-04-27T14:58:51;4.40;;;1.48;;
38567;SDS011;24338;48.280;10.970;2023-04-27T15:01:18;6.10;;;1.90;;
38567;SDS011;24338;48.280;10.970;2023-04-27T15:03:47;3.90;;;1.90;;
38567;SDS011;24338;48.280;10.970;2023-04-27T15:06:16;5.93;;;1.40;;
38567;SDS011;24338;48.280;10.970;2023-04-27T15:08:43;4.95;;;2.03;;
38567;SDS011;24338;48.280;10.970;2023-04-27T15:11:10;4.82;;;2.22;;
38567;SDS011;24338;48.280;10.970;2023-04-27T15:13:37;7.05;;;1.83;;
38567;SDS011;24338;48.280;10.970;2023-04-27T15:16:04;3.75;;;1.75;;
38567;SDS011;24338;48.280;10.970;2023-04-27T15:18:32;4.45;;;1.73;;
38567;SDS011;24338;48.280;10.970;2023-04-27T15:21:00;5.28;;;1.58;;
38567;SDS011;24338;48.280;10.970;2023-04-27T15:23:27;8.48;;;1.65;;
38567;SDS011;24338;48.280;10.970;2023-04-27T15:25:54;4.97;;;1.48;;
38567;SDS011;24338;48.280;10.970;2023-04-27T15:28:22;3.78;;;1.73;;
38567;SDS011;24338;48.280;10.970;2023-04-27T15:30:49;3.75;;;1.42;;
38567;SDS011;24338;48.280;10.970;2023-04-27T15:33:17;5.40;;;1.55;;
38567;SDS011;24338;48.280;10.970;2023-04-27T15:35:44;3.28;;;1.25;;
38567;SDS011;24338;48.280;10.970;2023-04-27T15:38:11;3.17;;;1.40;;
38567;SDS011;24338;48.280;10.970;2023-04-27T15:40:41;7.03;;;3.17;;
38567;SDS011;24338;48.280;10.970;2023-04-27T15:43:08;7.18;;;2.80;;
38567;SDS011;24338;48.280;10.970;2023-04-27T15:45:35;2.83;;;1.50;;
38567;SDS011;24338;48.280;10.970;2023-04-27T15:48:01;3.95;;;1.98;;
38567;SDS011;24338;48.280;10.970;2023-04-27T15:50:28;6.97;;;3.97;;
38567;SDS011;24338;48.280;10.970;2023-04-27T15:52:56;7.22;;;4.70;;
38567;SDS011;24338;48.280;10.970;2023-04-27T15:55:22;5.88;;;2.55;;
38567;SDS011;24338;48.280;10.970;2023-04-27T15:57:50;5.03;;;1.98;;
38567;SDS011;24338;48.280;10.970;2023-04-27T16:00:17;3.05;;;1.15;;
38567;SDS011;24338;48.280;10.970;2023-04-27T16:02:50;3.97;;;1.67;;
38567;SDS011;24338;48.280;10.970;2023-04-27T16:05:17;4.80;;;1.40;;
38567;SDS011;24338;48.280;10.970;2023-04-27T16:07:44;4.38;;;1.85;;
38567;SDS011;24338;48.280;10.970;2023-04-27T16:10:11;5.18;;;1.73;;